Capitol Logistics 429




KPWM
Portland International Jetport
Portland, Maine
KIAD
Washington Dulles International Airport
Dulles, Virginia

Activity Log

Date Flight Route Aircraft Duration
01/21/2021 CPX429 NUBLE3 BAF HYPER7 B738 1h 28m
08/10/2019 CPX429 NUBLE3 BAF HYPER7 B752 1h 39m
12/04/2018 CPX529 NUBLE4 BAF HYPER7 B752 1h 35m
03/31/2018 CPX529 NUBLE3 BAF HYPER7 B752 1h 32m

Route Details

Aircraft Information
Primary: Boeing 737-800BCF
Backup: Not Available
Route Data
Distance: 429nm
Duration: 1h 41m
Recm'd Route: NUBLE3 BAF HYPER7
Origin Wx: KPWM 180251Z 31006KT 10SM OVC050 06/02 A2976 RMK AO2 SLP077 T00560017 58002
Dest. Wx: KIAD 180252Z VRB04KT 10SM FEW120 BKN150 12/03 A2987 RMK AO2 SLP115 T01170033 51014
Notes: LOBSTER KING